METAR Data

Data at: 0534 UTC 28 Sep 2022

METAR for:KBHB (Bar Harbor/Hancock C, ME, US)
Text:KBHB 280456Z AUTO 00000KT 1/4SM FG OVC002 13/13 A2987 RMK AO2 SLP117 T01280128 RVRNO PNO $
Temperature: 12.8°C ( 55°F)
Dewpoint: 12.8°C ( 55°F) [RH = 100%]
Pressure (altimeter):29.87 inches Hg (1011.6 mb) [Sea level pressure: 1011.7 mb]
Winds:calm
Visibility: 0.25 sm ( 0.40 km)
Ceiling:200 feet AGL
Clouds: overcast cloud deck at 200 feet AGL
Weather:FG (fog)
QC Flag:automated observation with no human augmentation; SOME DATA ABOVE MAY BE INACCURATE!!!"$" is an indication the sensor requires maintenance.